PWSweather.com
Personal Weather Stations
Station Observations
TAMWORTH
TamworthGB

TamworthGB

Lat: 52.64844, Lon: -1.68986

Elevation: 275

Station Type: Davis 6162C Vantage Pro2 Plus with daytime FARS permanently connected to a dedicated HP Mini 110-4116sa series netbook computer

http://tamworthweather.com

Latest ConditionsUpdated 12:00:05 PM GMT Sunday, Oct 22, 2017
Currently Today's Max Today's Min Today's Average
Temperature 52.7°F11.5°C 52.7°F11.5°C 48.7°F9.3°C 50.1°F10.1°C
Dew Point 41.7°F5.4°C 46.3°F7.9°C 41.1°F5.1°C 43.3°F6.3°C
Winds 10.0 mph W16.1 kmh W 13.0 mph WSW20.9 kmh WSW - 10.4 mph 16.7 kmh
Wind Gusts 16.0 mph25.7 kmh 27.0 mph43.5 kmh - -
Humidity 66% 82% 66% 78%
Pressure 29.86 in1011.2 mb 29.86 in1011.2 mb 29.58 in1001.7 mb -
Precipitation - 0.01 in0.3 mm - -
Hour Temp Dew Point Humidity Winds Wind Gusts Pressure Precip Precip Rate Daily Precip Total
12:00 PM 52.7°F11.5°C 41.7°F5.4°C 66% 10.0 mph W16.1 kmh W 16.0 mph25.7 kmh 29.86 in1011.2 mb 0.00 in0.0 mm 0.00 in0.0 mm 0.01 in0.3 mm
11:50 AM 52.5°F11.4°C 41.5°F5.3°C 66% 12.0 mph W19.3 kmh W 21.0 mph33.8 kmh 29.86 in1011.2 mb 0.00 in0.0 mm 0.00 in0.0 mm 0.01 in0.3 mm
11:40 AM 52.0°F11.1°C 41.4°F5.2°C 67% 10.0 mph W16.1 kmh W 20.0 mph32.2 kmh 29.86 in1011.2 mb 0.00 in0.0 mm 0.00 in0.0 mm 0.01 in0.3 mm
11:30 AM 51.6°F10.9°C 41.8°F5.4°C 69% 9.0 mph W14.5 kmh W 20.0 mph32.2 kmh 29.86 in1011.2 mb 0.00 in0.0 mm 0.00 in0.0 mm 0.01 in0.3 mm
11:20 AM 51.4°F10.8°C 41.6°F5.3°C 69% 12.0 mph W19.3 kmh W 19.0 mph30.6 kmh 29.85 in1010.8 mb 0.00 in0.0 mm 0.00 in0.0 mm 0.01 in0.3 mm
11:10 AM 51.3°F10.7°C 41.1°F5.1°C 68% 12.0 mph W19.3 kmh W 27.0 mph43.5 kmh 29.85 in1010.8 mb 0.00 in0.0 mm 0.00 in0.0 mm 0.01 in0.3 mm
11:00 AM 51.1°F10.6°C 41.3°F5.2°C 69% 12.0 mph W19.3 kmh W 24.0 mph38.6 kmh 29.84 in1010.5 mb 0.00 in0.0 mm 0.00 in0.0 mm 0.01 in0.3 mm
10:50 AM 50.9°F10.5°C 41.5°F5.3°C 70% 12.0 mph W19.3 kmh W 23.0 mph37.0 kmh 29.84 in1010.5 mb 0.00 in0.0 mm 0.00 in0.0 mm 0.01 in0.3 mm
10:40 AM 50.9°F10.5°C 41.5°F5.3°C 70% 11.0 mph W17.7 kmh W 23.0 mph37.0 kmh 29.84 in1010.5 mb 0.00 in0.0 mm 0.00 in0.0 mm 0.01 in0.3 mm
10:30 AM 50.7°F10.4°C 41.7°F5.4°C 71% 11.0 mph W17.7 kmh W 23.0 mph37.0 kmh 29.83 in1010.2 mb 0.00 in0.0 mm 0.00 in0.0 mm 0.01 in0.3 mm
10:20 AM 50.7°F10.4°C 42.0°F5.6°C 72% 12.0 mph W19.3 kmh W 22.0 mph35.4 kmh 29.83 in1010.2 mb 0.00 in0.0 mm 0.00 in0.0 mm 0.01 in0.3 mm
10:10 AM 50.5°F10.3°C 41.8°F5.4°C 72% 10.0 mph W16.1 kmh W 23.0 mph37.0 kmh 29.82 in1009.8 mb 0.00 in0.0 mm 0.00 in0.0 mm 0.01 in0.3 mm
10:00 AM 50.5°F10.3°C 41.8°F5.4°C 72% 9.0 mph W14.5 kmh W 18.0 mph29.0 kmh 29.82 in1009.8 mb 0.00 in0.0 mm 0.00 in0.0 mm 0.01 in0.3 mm
09:50 AM 50.4°F10.2°C 42.0°F5.6°C 73% 9.0 mph W14.5 kmh W 20.0 mph32.2 kmh 29.82 in1009.8 mb 0.00 in0.0 mm 0.00 in0.0 mm 0.01 in0.3 mm
09:40 AM 50.4°F10.2°C 42.0°F5.6°C 73% 9.0 mph W14.5 kmh W 18.0 mph29.0 kmh 29.81 in1009.5 mb 0.00 in0.0 mm 0.00 in0.0 mm 0.01 in0.3 mm
09:30 AM 50.0°F10.0°C 42.0°F5.6°C 74% 9.0 mph W14.5 kmh W 21.0 mph33.8 kmh 29.81 in1009.5 mb 0.00 in0.0 mm 0.00 in0.0 mm 0.01 in0.3 mm
09:20 AM 50.0°F10.0°C 42.0°F5.6°C 74% 9.0 mph W14.5 kmh W 17.0 mph27.4 kmh 29.80 in1009.1 mb 0.00 in0.0 mm 0.00 in0.0 mm 0.01 in0.3 mm
09:10 AM 49.8°F9.9°C 42.2°F5.7°C 75% 10.0 mph W16.1 kmh W 22.0 mph35.4 kmh 29.80 in1009.1 mb 0.00 in0.0 mm 0.00 in0.0 mm 0.01 in0.3 mm
09:00 AM 49.6°F9.8°C 42.4°F5.8°C 76% 10.0 mph W16.1 kmh W 21.0 mph33.8 kmh 29.79 in1008.8 mb 0.00 in0.0 mm 0.00 in0.0 mm 0.01 in0.3 mm
08:50 AM 49.5°F9.7°C 42.2°F5.7°C 76% 11.0 mph W17.7 kmh W 21.0 mph33.8 kmh 29.79 in1008.8 mb 0.00 in0.0 mm 0.00 in0.0 mm 0.01 in0.3 mm
08:40 AM 49.5°F9.7°C 42.2°F5.7°C 76% 11.0 mph WSW17.7 kmh WSW 19.0 mph30.6 kmh 29.79 in1008.8 mb 0.00 in0.0 mm 0.00 in0.0 mm 0.01 in0.3 mm
08:30 AM 49.5°F9.7°C 42.5°F5.8°C 77% 10.0 mph W16.1 kmh W 18.0 mph29.0 kmh 29.79 in1008.8 mb 0.00 in0.0 mm 0.00 in0.0 mm 0.01 in0.3 mm
08:20 AM 49.5°F9.7°C 42.5°F5.8°C 77% 10.0 mph WSW16.1 kmh WSW 21.0 mph33.8 kmh 29.78 in1008.5 mb 0.00 in0.0 mm 0.00 in0.0 mm 0.01 in0.3 mm
08:10 AM 49.3°F9.6°C 42.7°F5.9°C 78% 10.0 mph W16.1 kmh W 20.0 mph32.2 kmh 29.78 in1008.5 mb 0.00 in0.0 mm 0.00 in0.0 mm 0.01 in0.3 mm
08:00 AM 49.3°F9.6°C 42.7°F5.9°C 78% 10.0 mph W16.1 kmh W 24.0 mph38.6 kmh 29.77 in1008.1 mb 0.00 in0.0 mm 0.00 in0.0 mm 0.01 in0.3 mm
07:50 AM 49.1°F9.5°C 42.9°F6.1°C 79% 11.0 mph WSW17.7 kmh WSW 20.0 mph32.2 kmh 29.77 in1008.1 mb 0.00 in0.0 mm 0.00 in0.0 mm 0.01 in0.3 mm
07:40 AM 49.1°F9.5°C 42.9°F6.1°C 79% 11.0 mph WSW17.7 kmh WSW 20.0 mph32.2 kmh 29.77 in1008.1 mb 0.00 in0.0 mm 0.00 in0.0 mm 0.01 in0.3 mm
07:30 AM 49.3°F9.6°C 43.4°F6.3°C 80% 10.0 mph WSW16.1 kmh WSW 18.0 mph29.0 kmh 29.76 in1007.8 mb 0.00 in0.0 mm 0.00 in0.0 mm 0.01 in0.3 mm
07:20 AM 49.1°F9.5°C 43.2°F6.2°C 80% 11.0 mph WSW17.7 kmh WSW 24.0 mph38.6 kmh 29.75 in1007.5 mb 0.00 in0.0 mm 0.00 in0.0 mm 0.01 in0.3 mm
07:10 AM 49.1°F9.5°C 43.2°F6.2°C 80% 10.0 mph WSW16.1 kmh WSW 21.0 mph33.8 kmh 29.75 in1007.5 mb 0.00 in0.0 mm 0.00 in0.0 mm 0.01 in0.3 mm
07:00 AM 49.1°F9.5°C 43.2°F6.2°C 80% 10.0 mph WSW16.1 kmh WSW 22.0 mph35.4 kmh 29.75 in1007.5 mb 0.00 in0.0 mm 0.00 in0.0 mm 0.01 in0.3 mm
06:50 AM 49.3°F9.6°C 43.4°F6.3°C 80% 10.0 mph WSW16.1 kmh WSW 17.0 mph27.4 kmh 29.74 in1007.1 mb 0.00 in0.0 mm 0.00 in0.0 mm 0.01 in0.3 mm
06:40 AM 49.3°F9.6°C 43.4°F6.3°C 80% 10.0 mph WSW16.1 kmh WSW 23.0 mph37.0 kmh 29.74 in1007.1 mb 0.00 in0.0 mm 0.00 in0.0 mm 0.01 in0.3 mm
06:30 AM 49.3°F9.6°C 43.7°F6.5°C 81% 10.0 mph WSW16.1 kmh WSW 20.0 mph32.2 kmh 29.74 in1007.1 mb 0.00 in0.0 mm 0.00 in0.0 mm 0.01 in0.3 mm
06:20 AM 49.3°F9.6°C 43.7°F6.5°C 81% 10.0 mph WSW16.1 kmh WSW 21.0 mph33.8 kmh 29.73 in1006.8 mb 0.00 in0.0 mm 0.00 in0.0 mm 0.01 in0.3 mm
06:10 AM 49.1°F9.5°C 43.5°F6.4°C 81% 11.0 mph WSW17.7 kmh WSW 21.0 mph33.8 kmh 29.73 in1006.8 mb 0.00 in0.0 mm 0.00 in0.0 mm 0.01 in0.3 mm
06:00 AM 49.3°F9.6°C 43.7°F6.5°C 81% 12.0 mph WSW19.3 kmh WSW 24.0 mph38.6 kmh 29.73 in1006.8 mb 0.00 in0.0 mm 0.00 in0.0 mm 0.01 in0.3 mm
05:50 AM 49.5°F9.7°C 43.5°F6.4°C 80% 13.0 mph WSW20.9 kmh WSW 21.0 mph33.8 kmh 29.73 in1006.8 mb 0.00 in0.0 mm 0.00 in0.0 mm 0.01 in0.3 mm
05:40 AM 49.5°F9.7°C 43.5°F6.4°C 80% 11.0 mph WSW17.7 kmh WSW 24.0 mph38.6 kmh 29.72 in1006.4 mb 0.00 in0.0 mm 0.00 in0.0 mm 0.01 in0.3 mm
05:30 AM 49.5°F9.7°C 43.9°F6.6°C 81% 11.0 mph WSW17.7 kmh WSW 21.0 mph33.8 kmh 29.72 in1006.4 mb 0.00 in0.0 mm 0.00 in0.0 mm 0.01 in0.3 mm
05:20 AM 49.3°F9.6°C 43.7°F6.5°C 81% 10.0 mph WSW16.1 kmh WSW 22.0 mph35.4 kmh 29.72 in1006.4 mb 0.00 in0.0 mm 0.00 in0.0 mm 0.01 in0.3 mm
05:10 AM 49.3°F9.6°C 43.7°F6.5°C 81% 10.0 mph WSW16.1 kmh WSW 19.0 mph30.6 kmh 29.71 in1006.1 mb 0.00 in0.0 mm 0.00 in0.0 mm 0.01 in0.3 mm
05:00 AM 49.3°F9.6°C 43.7°F6.5°C 81% 10.0 mph WSW16.1 kmh WSW 16.0 mph25.7 kmh 29.71 in1006.1 mb 0.00 in0.0 mm 0.00 in0.0 mm 0.01 in0.3 mm
04:50 AM 49.1°F9.5°C 43.5°F6.4°C 81% 10.0 mph WSW16.1 kmh WSW 20.0 mph32.2 kmh 29.70 in1005.8 mb 0.00 in0.0 mm 0.00 in0.0 mm 0.01 in0.3 mm
04:40 AM 48.9°F9.4°C 43.7°F6.5°C 82% 10.0 mph WSW16.1 kmh WSW 19.0 mph30.6 kmh 29.70 in1005.8 mb 0.00 in0.0 mm 0.00 in0.0 mm 0.01 in0.3 mm
04:30 AM 48.9°F9.4°C 43.7°F6.5°C 82% 12.0 mph WSW19.3 kmh WSW 21.0 mph33.8 kmh 29.69 in1005.4 mb 0.00 in0.0 mm 0.00 in0.0 mm 0.01 in0.3 mm
04:20 AM 48.9°F9.4°C 43.7°F6.5°C 82% 12.0 mph WSW19.3 kmh WSW 24.0 mph38.6 kmh 29.69 in1005.4 mb 0.01 in0.3 mm 0.00 in0.0 mm 0.01 in0.3 mm
04:10 AM 48.7°F9.3°C 43.5°F6.4°C 82% 12.0 mph WSW19.3 kmh WSW 19.0 mph30.6 kmh 29.69 in1005.4 mb 0.01 in0.3 mm 0.00 in0.0 mm 0.01 in0.3 mm
04:00 AM 48.9°F9.4°C 43.7°F6.5°C 82% 11.0 mph WSW17.7 kmh WSW 22.0 mph35.4 kmh 29.68 in1005.1 mb 0.01 in0.3 mm 0.00 in0.0 mm 0.01 in0.3 mm
03:50 AM 48.7°F9.3°C 43.5°F6.4°C 82% 10.0 mph WSW16.1 kmh WSW 24.0 mph38.6 kmh 29.67 in1004.7 mb 0.01 in0.3 mm 0.00 in0.0 mm 0.01 in0.3 mm
03:40 AM 48.9°F9.4°C 43.3°F6.3°C 81% 12.0 mph WSW19.3 kmh WSW 24.0 mph38.6 kmh 29.67 in1004.7 mb 0.01 in0.3 mm 0.00 in0.0 mm 0.01 in0.3 mm
03:30 AM 49.3°F9.6°C 43.4°F6.3°C 80% 12.0 mph WSW19.3 kmh WSW 24.0 mph38.6 kmh 29.66 in1004.4 mb 0.01 in0.3 mm 0.06 in1.5 mm 0.01 in0.3 mm
03:20 AM 49.5°F9.7°C 43.5°F6.4°C 80% 10.0 mph WSW16.1 kmh WSW 25.0 mph40.2 kmh 29.66 in1004.4 mb 0.00 in0.0 mm 0.00 in0.0 mm 0.00 in0.0 mm
03:10 AM 49.6°F9.8°C 43.7°F6.5°C 80% 10.0 mph WSW16.1 kmh WSW 20.0 mph32.2 kmh 29.65 in1004.1 mb 0.00 in0.0 mm 0.00 in0.0 mm 0.00 in0.0 mm
03:00 AM 49.8°F9.9°C 43.9°F6.6°C 80% 11.0 mph WSW17.7 kmh WSW 21.0 mph33.8 kmh 29.65 in1004.1 mb 0.00 in0.0 mm 0.00 in0.0 mm 0.00 in0.0 mm
02:50 AM 49.8°F9.9°C 43.9°F6.6°C 80% 11.0 mph WSW17.7 kmh WSW 21.0 mph33.8 kmh 29.65 in1004.1 mb 0.00 in0.0 mm 0.00 in0.0 mm 0.00 in0.0 mm
02:40 AM 49.8°F9.9°C 43.9°F6.6°C 80% 10.0 mph WSW16.1 kmh WSW 22.0 mph35.4 kmh 29.64 in1003.7 mb 0.00 in0.0 mm 0.00 in0.0 mm 0.00 in0.0 mm
02:30 AM 50.2°F10.1°C 44.2°F6.8°C 80% 10.0 mph WSW16.1 kmh WSW 20.0 mph32.2 kmh 29.64 in1003.7 mb 0.00 in0.0 mm 0.00 in0.0 mm 0.00 in0.0 mm
02:20 AM 50.2°F10.1°C 44.2°F6.8°C 80% 9.0 mph WSW14.5 kmh WSW 23.0 mph37.0 kmh 29.64 in1003.7 mb 0.00 in0.0 mm 0.00 in0.0 mm 0.00 in0.0 mm
02:10 AM 50.4°F10.2°C 44.1°F6.7°C 79% 9.0 mph WSW14.5 kmh WSW 18.0 mph29.0 kmh 29.63 in1003.4 mb 0.00 in0.0 mm 0.00 in0.0 mm 0.00 in0.0 mm
02:00 AM 50.5°F10.3°C 44.3°F6.8°C 79% 8.0 mph WSW12.9 kmh WSW 18.0 mph29.0 kmh 29.64 in1003.7 mb 0.00 in0.0 mm 0.00 in0.0 mm 0.00 in0.0 mm
01:50 AM 50.5°F10.3°C 44.3°F6.8°C 79% 9.0 mph WSW14.5 kmh WSW 17.0 mph27.4 kmh 29.63 in1003.4 mb 0.00 in0.0 mm 0.00 in0.0 mm 0.00 in0.0 mm
01:40 AM 50.7°F10.4°C 44.4°F6.9°C 79% 10.0 mph WSW16.1 kmh WSW 22.0 mph35.4 kmh 29.63 in1003.4 mb 0.00 in0.0 mm 0.00 in0.0 mm 0.00 in0.0 mm
01:30 AM 50.9°F10.5°C 44.6°F7.0°C 79% 9.0 mph WSW14.5 kmh WSW 21.0 mph33.8 kmh 29.62 in1003.0 mb 0.00 in0.0 mm 0.00 in0.0 mm 0.00 in0.0 mm
01:20 AM 51.1°F10.6°C 44.8°F7.1°C 79% 9.0 mph W14.5 kmh W 18.0 mph29.0 kmh 29.62 in1003.0 mb 0.00 in0.0 mm 0.00 in0.0 mm 0.00 in0.0 mm
01:10 AM 51.3°F10.7°C 45.0°F7.2°C 79% 9.0 mph WSW14.5 kmh WSW 20.0 mph32.2 kmh 29.61 in1002.7 mb 0.00 in0.0 mm 0.00 in0.0 mm 0.00 in0.0 mm
01:00 AM 51.3°F10.7°C 45.0°F7.2°C 79% 9.0 mph WSW14.5 kmh WSW 19.0 mph30.6 kmh 29.61 in1002.7 mb 0.00 in0.0 mm 0.00 in0.0 mm 0.00 in0.0 mm
12:50 AM 51.4°F10.8°C 45.1°F7.3°C 79% 11.0 mph WSW17.7 kmh WSW 20.0 mph32.2 kmh 29.60 in1002.4 mb 0.00 in0.0 mm 0.00 in0.0 mm 0.00 in0.0 mm
12:40 AM 51.6°F10.9°C 45.3°F7.4°C 79% 11.0 mph W17.7 kmh W 22.0 mph35.4 kmh 29.60 in1002.4 mb 0.00 in0.0 mm 0.00 in0.0 mm 0.00 in0.0 mm
12:30 AM 51.8°F11.0°C 45.5°F7.5°C 79% 10.0 mph W16.1 kmh W 19.0 mph30.6 kmh 29.59 in1002.0 mb 0.00 in0.0 mm 0.00 in0.0 mm 0.00 in0.0 mm
12:20 AM 51.8°F11.0°C 46.2°F7.9°C 81% 10.0 mph W16.1 kmh W 21.0 mph33.8 kmh 29.59 in1002.0 mb 0.00 in0.0 mm 0.00 in0.0 mm 0.00 in0.0 mm
12:10 AM 51.8°F11.0°C 46.2°F7.9°C 81% 10.0 mph W16.1 kmh W 22.0 mph35.4 kmh 29.59 in1002.0 mb 0.00 in0.0 mm 0.00 in0.0 mm 0.00 in0.0 mm
12:00 AM 52.0°F11.1°C 46.3°F7.9°C 81% 11.0 mph W17.7 kmh W 20.0 mph32.2 kmh 29.58 in1001.7 mb 0.00 in0.0 mm 0.00 in0.0 mm 0.00 in0.0 mm